createdAt,value
2017-04-29T00:00:19.222Z,31.70
2017-04-29T00:02:50.142Z,33.60
2017-04-29T00:05:20.804Z,36.90
2017-04-29T00:07:51.792Z,32.50
2017-04-29T00:10:22.813Z,34.90
2017-04-29T00:12:53.810Z,35.20
2017-04-29T00:15:24.507Z,34.80
2017-04-29T00:17:55.445Z,34.80
2017-04-29T00:20:26.296Z,35.50
2017-04-29T00:22:57.241Z,36.30
2017-04-29T00:25:27.894Z,33.90
2017-04-29T00:27:58.884Z,38.80
2017-04-29T00:30:29.638Z,33.20
2017-04-29T00:33:00.612Z,33.00
2017-04-29T00:35:32.395Z,34.60
2017-04-29T00:38:03.780Z,33.40
2017-04-29T00:40:34.858Z,33.30
2017-04-29T00:43:05.911Z,32.80
2017-04-29T00:45:36.727Z,33.70
2017-04-29T00:48:08.449Z,29.80
2017-04-29T00:50:39.396Z,33.80
2017-04-29T00:53:10.322Z,31.60
2017-04-29T00:55:41.245Z,30.40
2017-04-29T00:58:12.131Z,30.00
2017-04-29T01:00:43.227Z,30.70
2017-04-29T01:03:15.402Z,31.50
2017-04-29T01:05:46.585Z,31.50
2017-04-29T01:08:17.306Z,31.80
2017-04-29T01:10:47.996Z,31.20
2017-04-29T01:13:18.968Z,35.20
2017-04-29T01:15:50.795Z,34.10
2017-04-29T01:18:21.800Z,33.60
2017-04-29T01:20:52.676Z,34.90
2017-04-29T01:23:23.287Z,35.60
2017-04-29T01:25:53.799Z,35.40
2017-04-29T01:28:25.404Z,34.60
2017-04-29T01:30:56.181Z,35.90
2017-04-29T01:33:27.260Z,38.40
2017-04-29T01:35:57.724Z,38.80
2017-04-29T01:38:28.546Z,38.80
2017-04-29T01:40:59.556Z,39.10
2017-04-29T01:43:30.400Z,39.70
2017-04-29T01:46:00.405Z,40.80
2017-04-29T01:48:32.207Z,42.40
2017-04-29T01:51:02.992Z,40.60
2017-04-29T01:53:33.102Z,41.30
2017-04-29T01:56:04.058Z,43.10
2017-04-29T01:58:35.119Z,43.50
2017-04-29T02:01:05.806Z,41.40
2017-04-29T02:03:36.681Z,43.10
2017-04-29T02:06:07.458Z,44.10
2017-04-29T02:08:38.360Z,45.50
2017-04-29T02:11:09.412Z,43.80
2017-04-29T02:13:40.138Z,46.10
2017-04-29T02:16:10.870Z,45.00
2017-04-29T02:18:41.783Z,45.70
2017-04-29T02:21:12.843Z,45.00
2017-04-29T02:23:43.752Z,45.90
2017-04-29T02:26:14.702Z,43.10
2017-04-29T02:28:45.648Z,43.40
2017-04-29T02:31:16.789Z,44.80
2017-04-29T02:33:48.165Z,44.20
2017-04-29T02:36:18.890Z,46.00
2017-04-29T02:38:49.820Z,45.50
2017-04-29T02:41:20.753Z,44.90
2017-04-29T02:43:51.454Z,44.60
2017-04-29T02:46:22.261Z,45.80
2017-04-29T02:48:53.902Z,45.90
2017-04-29T02:51:24.389Z,46.50
2017-04-29T02:53:55.258Z,47.50
2017-04-29T02:56:26.064Z,46.70
2017-04-29T02:58:56.833Z,47.70
2017-04-29T03:01:27.716Z,48.10
2017-04-29T03:03:58.000Z,51.90
2017-04-29T03:06:28.849Z,51.70
2017-04-29T03:08:59.551Z,49.80
2017-04-29T03:11:30.291Z,51.20
2017-04-29T03:14:01.087Z,50.90
2017-04-29T03:16:31.930Z,54.00
2017-04-29T03:19:02.474Z,53.00
2017-04-29T03:21:33.254Z,55.20
2017-04-29T03:24:04.063Z,57.20
2017-04-29T03:26:35.114Z,55.80
2017-04-29T03:29:05.929Z,58.80
2017-04-29T03:31:36.819Z,57.70
2017-04-29T03:34:08.562Z,57.10
2017-04-29T03:36:39.421Z,58.00
2017-04-29T03:39:10.356Z,58.60
2017-04-29T03:41:41.175Z,58.50
2017-04-29T03:44:12.273Z,60.50
2017-04-29T03:46:43.788Z,63.10
2017-04-29T03:49:15.967Z,66.00
2017-04-29T03:51:46.799Z,70.70
2017-04-29T03:54:17.803Z,70.80
2017-04-29T03:56:48.719Z,73.20
2017-04-29T03:59:19.777Z,75.80
2017-04-29T04:01:50.566Z,76.00
2017-04-29T04:04:21.884Z,73.80
2017-04-29T04:06:52.679Z,73.90
2017-04-29T04:09:24.086Z,76.80
2017-04-29T04:11:54.633Z,73.90
2017-04-29T04:14:25.438Z,75.40
2017-04-29T04:16:56.163Z,76.30
2017-04-29T04:19:27.095Z,76.10
2017-04-29T04:21:57.663Z,75.60
2017-04-29T04:24:28.384Z,75.90
2017-04-29T04:26:59.192Z,77.30
2017-04-29T04:29:30.015Z,76.00
2017-04-29T04:32:00.655Z,77.30
2017-04-29T04:34:31.501Z,76.70
2017-04-29T04:37:02.281Z,79.00
2017-04-29T04:39:33.116Z,81.10
2017-04-29T04:42:03.770Z,79.30
2017-04-29T04:44:34.876Z,81.00
2017-04-29T04:47:05.385Z,78.90
2017-04-29T04:49:37.039Z,79.70
2017-04-29T04:52:07.678Z,79.40
2017-04-29T04:54:38.701Z,79.60
2017-04-29T04:57:09.515Z,81.10
2017-04-29T04:59:40.248Z,80.80
2017-04-29T05:02:10.828Z,81.20
2017-04-29T05:04:41.694Z,83.10
2017-04-29T05:07:12.055Z,82.30
2017-04-29T05:09:42.987Z,84.40
2017-04-29T05:12:14.089Z,82.90
2017-04-29T05:14:44.811Z,82.40
2017-04-29T05:17:15.784Z,82.00
2017-04-29T05:19:46.365Z,81.70
2017-04-29T05:22:17.171Z,82.20
2017-04-29T05:24:48.183Z,80.90
2017-04-29T05:27:19.119Z,81.80
2017-04-29T05:29:52.227Z,80.60
2017-04-29T05:32:22.902Z,80.90
2017-04-29T05:34:53.981Z,80.50
2017-04-29T05:37:24.772Z,80.60
2017-04-29T05:39:55.812Z,81.30
2017-04-29T05:42:26.735Z,82.90
2017-04-29T05:44:57.750Z,82.00
2017-04-29T05:47:28.662Z,83.10
2017-04-29T05:50:01.100Z,86.80
2017-04-29T05:52:31.979Z,85.80
2017-04-29T05:55:02.849Z,87.10
2017-04-29T05:57:33.418Z,87.50
2017-04-29T06:00:03.658Z,88.20
2017-04-29T06:02:34.659Z,85.00
2017-04-29T06:05:05.402Z,85.30
2017-04-29T06:07:36.313Z,85.70
2017-04-29T06:10:07.177Z,85.80
2017-04-29T06:12:38.080Z,84.80
2017-04-29T06:15:09.879Z,85.80
2017-04-29T06:17:40.775Z,85.20
2017-04-29T06:20:11.317Z,85.80
2017-04-29T06:22:42.452Z,85.90
2017-04-29T06:25:13.555Z,85.70
2017-04-29T06:27:44.422Z,87.30
2017-04-29T06:30:15.194Z,86.80
2017-04-29T06:32:45.851Z,86.00
2017-04-29T06:35:17.095Z,86.50
2017-04-29T06:37:47.871Z,87.10
2017-04-29T06:40:18.795Z,87.50
2017-04-29T06:42:50.316Z,87.80
2017-04-29T06:45:21.076Z,87.70
2017-04-29T06:47:52.040Z,88.60
2017-04-29T06:50:24.273Z,89.60
2017-04-29T06:52:54.878Z,90.00
2017-04-29T06:55:25.799Z,89.40
2017-04-29T06:57:56.667Z,90.60
2017-04-29T07:00:27.697Z,90.50
2017-04-29T07:02:58.769Z,90.90
2017-04-29T07:05:29.865Z,91.20
2017-04-29T07:08:00.690Z,91.60
2017-04-29T07:10:31.650Z,91.00
2017-04-29T07:13:02.426Z,91.00
2017-04-29T07:15:33.230Z,91.10
2017-04-29T07:18:04.097Z,91.10
2017-04-29T07:20:34.824Z,91.40
2017-04-29T07:23:05.714Z,92.70
2017-04-29T07:25:36.656Z,92.40
2017-04-29T07:28:07.431Z,92.20
2017-04-29T07:30:38.246Z,92.70
2017-04-29T07:33:09.167Z,93.20
2017-04-29T07:35:39.967Z,92.90
2017-04-29T07:38:10.683Z,93.20
2017-04-29T07:40:41.662Z,93.60
2017-04-29T07:43:13.268Z,93.20
2017-04-29T07:45:43.962Z,93.40
2017-04-29T07:48:14.839Z,93.80
2017-04-29T07:50:46.583Z,94.00
2017-04-29T07:53:17.306Z,93.70
2017-04-29T07:55:47.972Z,93.40
2017-04-29T07:58:18.661Z,93.90
2017-04-29T08:00:49.487Z,94.00
2017-04-29T08:03:20.242Z,94.30
2017-04-29T08:05:50.980Z,95.20
2017-04-29T08:08:21.525Z,95.10
2017-04-29T08:10:52.497Z,95.50
2017-04-29T08:13:23.180Z,95.50
2017-04-29T08:15:53.966Z,95.90
2017-04-29T08:18:24.513Z,96.00
2017-04-29T08:20:56.038Z,96.20
2017-04-29T08:23:26.549Z,96.60
2017-04-29T08:25:57.373Z,96.60
2017-04-29T08:28:28.254Z,96.80
2017-04-29T08:30:58.847Z,97.00
2017-04-29T08:33:29.934Z,97.70
2017-04-29T08:36:00.950Z,98.50
2017-04-29T08:38:31.619Z,99.40
2017-04-29T08:41:02.476Z,99.90
2017-04-29T08:43:33.433Z,99.90
2017-04-29T08:46:04.243Z,99.90
2017-04-29T08:48:35.047Z,99.90
2017-04-29T08:51:07.738Z,99.90
2017-04-29T08:53:38.581Z,99.90
2017-04-29T08:56:09.559Z,99.90
2017-04-29T08:58:40.298Z,99.90
2017-04-29T09:01:11.083Z,99.90
2017-04-29T09:03:42.092Z,99.90
2017-04-29T09:06:12.648Z,99.90
2017-04-29T09:08:43.184Z,99.90
2017-04-29T09:11:14.183Z,99.90
2017-04-29T09:13:45.018Z,99.90
2017-04-29T09:16:15.835Z,99.90
2017-04-29T09:18:46.660Z,99.90
2017-04-29T09:21:17.761Z,99.90
2017-04-29T09:23:48.572Z,99.90
2017-04-29T09:26:19.507Z,99.90
2017-04-29T09:28:50.225Z,99.90
2017-04-29T09:31:21.627Z,99.90
2017-04-29T09:33:52.485Z,99.90
2017-04-29T09:36:23.551Z,99.90
2017-04-29T09:38:54.258Z,99.90
2017-04-29T09:41:25.281Z,99.90
2017-04-29T09:43:55.876Z,99.90
2017-04-29T09:46:27.754Z,99.90
2017-04-29T09:48:58.262Z,99.90
2017-04-29T09:51:30.423Z,99.90
2017-04-29T09:54:04.275Z,99.90
2017-04-29T09:56:35.868Z,99.90
2017-04-29T09:59:06.643Z,99.90
2017-04-29T10:01:37.284Z,99.90
2017-04-29T10:04:07.962Z,99.90
2017-04-29T10:06:38.841Z,99.90
2017-04-29T10:09:09.559Z,99.90
2017-04-29T10:11:40.363Z,99.90
2017-04-29T10:14:11.272Z,99.90
2017-04-29T10:16:42.804Z,99.90
2017-04-29T10:19:13.771Z,99.90
2017-04-29T10:21:44.691Z,99.90
2017-04-29T10:24:15.280Z,99.90
2017-04-29T10:26:46.042Z,99.90
2017-04-29T10:29:16.655Z,99.90
2017-04-29T10:31:47.419Z,99.90
2017-04-29T10:34:18.243Z,99.90
2017-04-29T10:36:49.142Z,99.90
2017-04-29T10:39:20.798Z,99.90
2017-04-29T10:41:51.755Z,99.90
2017-04-29T10:44:22.713Z,99.90
2017-04-29T10:46:53.697Z,99.90
2017-04-29T10:49:25.301Z,99.90
2017-04-29T10:51:57.151Z,99.90
2017-04-29T10:54:28.025Z,99.90
2017-04-29T10:56:58.971Z,99.90
2017-04-29T10:59:29.578Z,99.90
2017-04-29T11:02:00.043Z,99.90
2017-04-29T11:04:30.482Z,99.90
2017-04-29T11:07:01.436Z,99.90
2017-04-29T11:09:32.416Z,99.90
2017-04-29T11:12:03.271Z,99.90
2017-04-29T11:14:33.865Z,99.90
2017-04-29T11:17:04.554Z,99.90
2017-04-29T11:19:35.226Z,99.90
2017-04-29T11:22:06.139Z,99.90
2017-04-29T11:24:36.472Z,99.90
2017-04-29T11:27:07.437Z,99.90
2017-04-29T11:29:37.950Z,99.90
2017-04-29T11:32:08.551Z,99.90
2017-04-29T11:34:39.448Z,99.90
2017-04-29T11:37:10.011Z,99.90
2017-04-29T11:39:40.877Z,99.90
2017-04-29T11:42:11.886Z,99.90
2017-04-29T11:44:42.083Z,99.90
2017-04-29T11:47:13.326Z,99.90
2017-04-29T11:49:44.117Z,99.90
2017-04-29T11:52:15.741Z,99.90
2017-04-29T11:54:46.649Z,99.90
2017-04-29T11:57:17.356Z,99.90
2017-04-29T11:59:48.298Z,99.90
2017-04-29T12:02:19.116Z,99.90
2017-04-29T12:04:49.798Z,99.90
2017-04-29T12:07:23.536Z,99.90
2017-04-29T12:09:55.229Z,99.90
2017-04-29T12:12:26.047Z,99.90
2017-04-29T12:14:56.747Z,99.90
2017-04-29T12:17:27.581Z,99.90
2017-04-29T12:19:57.968Z,99.90
2017-04-29T12:22:28.878Z,99.90
2017-04-29T12:25:00.151Z,99.90
2017-04-29T12:27:31.020Z,99.90
2017-04-29T12:30:01.925Z,99.90
2017-04-29T12:32:32.792Z,99.90
2017-04-29T12:35:03.584Z,99.90
2017-04-29T12:37:34.524Z,99.90
2017-04-29T12:40:05.254Z,99.90
2017-04-29T12:42:36.127Z,99.90
2017-04-29T12:45:06.896Z,99.90
2017-04-29T12:47:37.889Z,99.90
2017-04-29T12:50:08.510Z,99.90
2017-04-29T12:52:40.355Z,99.90
2017-04-29T12:55:11.346Z,99.90
2017-04-29T12:57:42.228Z,99.90
2017-04-29T13:00:13.303Z,99.90
2017-04-29T13:02:44.054Z,99.90
2017-04-29T13:05:14.647Z,99.90
2017-04-29T13:07:45.352Z,99.90
2017-04-29T13:10:16.455Z,99.90
2017-04-29T13:12:47.443Z,99.90
2017-04-29T13:15:19.148Z,99.90
2017-04-29T13:17:50.088Z,99.90
2017-04-29T13:20:20.909Z,99.90
2017-04-29T13:22:51.739Z,99.90
2017-04-29T13:25:22.377Z,99.90
2017-04-29T13:27:53.361Z,99.90
2017-04-29T13:30:24.233Z,99.90
2017-04-29T13:32:55.048Z,99.90
2017-04-29T13:35:26.576Z,99.90
2017-04-29T13:37:57.398Z,99.90
2017-04-29T13:40:27.903Z,99.90
2017-04-29T13:42:59.339Z,99.90
2017-04-29T13:45:30.767Z,99.90
2017-04-29T13:48:01.587Z,99.90
2017-04-29T13:50:32.309Z,99.90
2017-04-29T13:53:04.053Z,99.90
2017-04-29T13:55:34.778Z,99.90
2017-04-29T13:58:05.692Z,99.90
2017-04-29T14:00:36.230Z,99.90
2017-04-29T14:03:07.174Z,99.90
2017-04-29T14:05:38.066Z,99.90
2017-04-29T14:08:09.022Z,99.90
2017-04-29T14:10:39.963Z,99.90
2017-04-29T14:13:11.678Z,99.90
2017-04-29T14:15:42.242Z,99.90
2017-04-29T14:18:12.911Z,99.90
2017-04-29T14:20:43.525Z,94.30
2017-04-29T14:23:14.610Z,91.10
2017-04-29T14:25:45.458Z,89.90
2017-04-29T14:28:16.612Z,88.10
2017-04-29T14:30:47.326Z,83.30
2017-04-29T14:33:18.201Z,82.20
2017-04-29T14:35:49.015Z,82.80
2017-04-29T14:38:19.639Z,79.20
2017-04-29T14:40:50.414Z,79.20
2017-04-29T14:43:21.363Z,83.70
2017-04-29T14:45:52.321Z,84.40
2017-04-29T14:48:23.253Z,84.60
2017-04-29T14:50:54.174Z,82.50
2017-04-29T14:53:25.638Z,82.00
2017-04-29T14:55:56.301Z,79.80
2017-04-29T14:58:27.250Z,75.50
2017-04-29T15:00:58.001Z,67.70
2017-04-29T15:03:28.892Z,69.10
2017-04-29T15:05:59.677Z,63.90
2017-04-29T15:08:30.334Z,69.70
2017-04-29T15:11:01.089Z,70.70
2017-04-29T15:13:31.921Z,62.80
2017-04-29T15:16:03.578Z,56.20
2017-04-29T15:18:34.562Z,51.30
2017-04-29T15:21:05.542Z,46.20
2017-04-29T15:23:36.432Z,43.00
2017-04-29T15:26:07.278Z,32.90
2017-04-29T15:28:38.100Z,34.00
2017-04-29T15:31:09.090Z,32.60
2017-04-29T15:33:39.810Z,31.30
2017-04-29T15:36:11.486Z,30.60
2017-04-29T15:38:42.583Z,27.30
2017-04-29T15:41:13.306Z,26.20
2017-04-29T15:43:43.898Z,28.30
2017-04-29T15:46:14.560Z,27.90
2017-04-29T15:48:45.389Z,25.50
2017-04-29T15:51:16.241Z,26.60
2017-04-29T15:53:47.561Z,29.40
2017-04-29T15:56:18.280Z,30.20
2017-04-29T15:58:48.421Z,29.30
2017-04-29T16:01:18.487Z,27.60
2017-04-29T16:03:48.530Z,24.20
2017-04-29T16:06:18.583Z,25.10
2017-04-29T16:08:48.669Z,25.60
2017-04-29T16:11:19.475Z,26.10
2017-04-29T16:13:50.302Z,27.20
2017-04-29T16:16:20.286Z,29.50
2017-04-29T16:18:50.624Z,31.90
2017-04-29T16:21:20.733Z,27.50
2017-04-29T16:23:50.848Z,30.10
2017-04-29T16:26:21.518Z,28.60
2017-04-29T16:28:52.220Z,26.00
2017-04-29T16:31:23.008Z,27.70
2017-04-29T16:33:53.571Z,27.40
2017-04-29T16:36:24.327Z,30.20
2017-04-29T16:38:55.099Z,32.80
2017-04-29T16:41:25.959Z,31.80
2017-04-29T16:43:57.642Z,35.40
2017-04-29T16:46:28.286Z,32.60
2017-04-29T16:48:58.473Z,31.70
2017-04-29T16:51:29.364Z,35.00
2017-04-29T16:54:01.113Z,35.50
2017-04-29T16:56:31.650Z,33.20
2017-04-29T16:59:02.207Z,33.20
2017-04-29T17:01:32.920Z,33.10
2017-04-29T17:04:03.785Z,35.50
2017-04-29T17:06:34.372Z,34.40
2017-04-29T17:09:05.208Z,30.20
2017-04-29T17:11:36.257Z,33.00
2017-04-29T17:14:06.997Z,31.30
2017-04-29T17:16:37.923Z,27.70
2017-04-29T17:19:08.834Z,28.80
2017-04-29T17:21:39.505Z,28.30
2017-04-29T17:24:10.771Z,27.70
2017-04-29T17:26:41.390Z,31.40
2017-04-29T17:29:12.010Z,28.10
2017-04-29T17:31:42.598Z,28.30
2017-04-29T17:34:13.623Z,28.20
2017-04-29T17:36:44.631Z,28.60
2017-04-29T17:39:15.542Z,31.00
2017-04-29T17:41:46.348Z,30.60
2017-04-29T17:44:17.121Z,31.00
2017-04-29T17:46:47.822Z,30.90
2017-04-29T17:49:18.669Z,31.50
2017-04-29T17:51:49.637Z,29.30
2017-04-29T17:54:21.256Z,33.90
2017-04-29T17:56:52.200Z,30.00
2017-04-29T17:59:23.160Z,30.80
2017-04-29T18:01:53.974Z,30.10
2017-04-29T18:04:25.611Z,31.30
2017-04-29T18:06:56.414Z,31.30
2017-04-29T18:09:27.365Z,40.50
2017-04-29T18:11:58.467Z,41.20
2017-04-29T18:14:29.312Z,37.50
2017-04-29T18:17:00.007Z,36.70
2017-04-29T18:19:31.089Z,40.10
2017-04-29T18:22:01.624Z,35.70
2017-04-29T18:24:32.789Z,38.20
2017-04-29T18:27:03.845Z,32.60
2017-04-29T18:29:34.694Z,33.10
2017-04-29T18:32:05.343Z,29.80
2017-04-29T18:34:36.009Z,27.30
2017-04-29T18:37:06.829Z,30.90
2017-04-29T18:39:37.723Z,32.30
2017-04-29T18:42:09.358Z,30.50
2017-04-29T18:44:40.279Z,31.50
2017-04-29T18:47:10.917Z,38.30
2017-04-29T18:49:41.145Z,34.30
2017-04-29T18:52:11.515Z,31.40
2017-04-29T18:54:43.186Z,29.50
2017-04-29T18:57:13.949Z,34.70
2017-04-29T18:59:44.785Z,31.00
2017-04-29T19:02:15.622Z,35.40
2017-04-29T19:04:46.608Z,31.30
2017-04-29T19:07:17.241Z,30.40
2017-04-29T19:09:47.940Z,28.40
2017-04-29T19:12:18.594Z,35.70
2017-04-29T19:14:49.608Z,31.00
2017-04-29T19:17:20.212Z,28.10
2017-04-29T19:19:50.992Z,27.80
2017-04-29T19:22:21.873Z,27.40
2017-04-29T19:24:52.871Z,34.40
2017-04-29T19:27:23.690Z,34.40
2017-04-29T19:29:54.315Z,32.80
2017-04-29T19:32:25.149Z,29.80
2017-04-29T19:34:55.800Z,29.80
2017-04-29T19:37:26.711Z,33.20
2017-04-29T19:39:57.495Z,33.10
2017-04-29T19:42:28.114Z,26.60
2017-04-29T19:44:58.443Z,31.90
2017-04-29T19:47:29.493Z,30.20
2017-04-29T19:50:00.167Z,31.90
2017-04-29T19:52:30.948Z,36.30
2017-04-29T19:55:02.947Z,34.50
2017-04-29T19:57:33.929Z,34.40
2017-04-29T20:00:04.803Z,32.90
2017-04-29T20:02:35.365Z,36.30
2017-04-29T20:05:06.831Z,36.30
2017-04-29T20:07:37.685Z,28.30
2017-04-29T20:10:08.203Z,35.70
2017-04-29T20:12:39.000Z,36.60
2017-04-29T20:15:09.773Z,31.30
2017-04-29T20:17:40.507Z,35.10
2017-04-29T20:20:11.167Z,36.40
2017-04-29T20:22:42.105Z,36.40
2017-04-29T20:25:13.202Z,37.10
2017-04-29T20:27:45.536Z,30.60
2017-04-29T20:30:16.576Z,38.90
2017-04-29T20:32:47.795Z,35.60
2017-04-29T20:35:18.699Z,32.10
2017-04-29T20:37:49.574Z,32.70
2017-04-29T20:40:20.065Z,33.40
2017-04-29T20:42:51.789Z,31.10
2017-04-29T20:45:24.206Z,36.40
2017-04-29T20:47:55.473Z,29.60
2017-04-29T20:50:26.729Z,28.90
2017-04-29T20:52:57.659Z,33.60
2017-04-29T20:55:29.512Z,28.10
2017-04-29T20:58:00.017Z,27.70
2017-04-29T21:00:30.982Z,29.90
2017-04-29T21:03:01.769Z,27.20
2017-04-29T21:05:32.753Z,31.00
2017-04-29T21:08:03.722Z,28.00
2017-04-29T21:10:34.468Z,26.20
2017-04-29T21:13:05.142Z,27.90
2017-04-29T21:15:35.848Z,28.10
2017-04-29T21:18:06.715Z,30.30
2017-04-29T21:20:37.749Z,27.60
2017-04-29T21:23:08.378Z,28.70
2017-04-29T21:25:39.463Z,29.60
2017-04-29T21:28:10.188Z,27.00
2017-04-29T21:30:40.923Z,32.30
2017-04-29T21:33:11.862Z,30.00
2017-04-29T21:35:42.932Z,27.30
2017-04-29T21:38:14.029Z,29.10
2017-04-29T21:40:44.668Z,29.30
2017-04-29T21:43:15.385Z,31.10
2017-04-29T21:45:46.272Z,29.70
2017-04-29T21:48:17.310Z,26.00
2017-04-29T21:50:48.270Z,33.60
2017-04-29T21:53:18.985Z,28.80
2017-04-29T21:55:51.368Z,30.70
2017-04-29T21:58:22.138Z,26.20
2017-04-29T22:00:53.795Z,26.30
2017-04-29T22:03:24.551Z,28.90
2017-04-29T22:05:55.547Z,26.30
2017-04-29T22:08:26.816Z,26.30
2017-04-29T22:10:57.733Z,29.50
2017-04-29T22:13:28.630Z,23.50
2017-04-29T22:15:59.712Z,26.20
2017-04-29T22:18:30.787Z,29.20
2017-04-29T22:21:01.477Z,30.90
2017-04-29T22:23:32.817Z,27.80
2017-04-29T22:26:03.573Z,25.90
2017-04-29T22:28:34.686Z,28.80
2017-04-29T22:31:05.994Z,28.30
2017-04-29T22:33:36.685Z,28.60
2017-04-29T22:36:07.816Z,27.00
2017-04-29T22:38:38.699Z,23.20
2017-04-29T22:41:09.364Z,25.60
2017-04-29T22:43:39.975Z,28.70
2017-04-29T22:46:10.588Z,26.00
2017-04-29T22:48:41.629Z,28.80
2017-04-29T22:51:12.301Z,27.10
2017-04-29T22:53:42.890Z,27.90
2017-04-29T22:56:14.815Z,25.60
2017-04-29T22:58:45.827Z,25.80
2017-04-29T23:01:16.636Z,26.00
2017-04-29T23:03:47.435Z,30.90
2017-04-29T23:06:18.441Z,27.70
2017-04-29T23:08:48.962Z,24.20
2017-04-29T23:11:19.606Z,26.20
2017-04-29T23:13:50.150Z,24.70
2017-04-29T23:16:21.325Z,25.00
2017-04-29T23:18:52.054Z,26.00
2017-04-29T23:21:22.862Z,26.30
2017-04-29T23:23:53.721Z,23.60
2017-04-29T23:26:24.724Z,24.90
2017-04-29T23:28:55.522Z,25.90
2017-04-29T23:31:26.566Z,24.20
2017-04-29T23:33:57.977Z,24.40
2017-04-29T23:36:28.757Z,26.10
2017-04-29T23:38:59.787Z,29.50
2017-04-29T23:41:30.497Z,26.30
2017-04-29T23:44:01.232Z,25.80
2017-04-29T23:46:32.135Z,31.10
2017-04-29T23:49:02.951Z,26.10
2017-04-29T23:51:33.769Z,26.40
2017-04-29T23:54:05.351Z,31.30
2017-04-29T23:56:37.387Z,30.50
2017-04-29T23:59:08.467Z,29.30
